Time,TemperatureF,DewpointF,PressureIn,WindDirection,WindDirectionDegrees,WindSpeedMPH,WindSpeedGustMPH,Humidity,HourlyPrecipIn,Conditions,Clouds,dailyrainin,SolarRadiationWatts/m^2,SoftwareType,DateUTC
2013-02-21 00:00:00,40.6,28.2,30.15,West,267,0.0,0.0,61,0.00,,CLR,0.00,0.00,VWS V14.00,2013-02-21 05:00:00,
2013-02-21 00:03:00,40.6,28.2,30.15,West,267,0.0,0.0,61,0.00,,CLR,0.00,0.00,VWS V14.00,2013-02-21 05:03:00,
2013-02-21 00:08:00,40.5,28.5,30.15,West,267,0.0,0.0,62,0.00,,CLR,0.00,0.00,VWS V14.00,2013-02-21 05:08:00,
2013-02-21 00:13:00,40.2,29.4,30.15,West,267,0.0,0.0,65,0.00,,CLR,0.00,0.00,VWS V14.00,2013-02-21 05:13:00,
2013-02-21 00:18:00,40.1,29.7,30.15,West,267,0.0,0.0,66,0.00,,CLR,0.00,0.00,VWS V14.00,2013-02-21 05:18:00,
2013-02-21 00:23:00,39.8,29.4,30.15,West,267,0.0,0.0,66,0.00,,CLR,0.00,0.00,VWS V14.00,2013-02-21 05:23:00,
2013-02-21 00:28:00,39.6,29.9,30.15,West,267,0.0,0.0,68,0.00,,CLR,0.00,0.00,VWS V14.00,2013-02-21 05:28:00,
2013-02-21 00:33:00,39.5,30.2,30.15,West,267,0.0,0.0,69,0.00,,CLR,0.00,0.00,VWS V14.00,2013-02-21 05:33:00,
2013-02-21 00:38:00,39.3,30.4,30.15,West,267,0.0,0.0,70,0.00,,CLR,0.00,0.00,VWS V14.00,2013-02-21 05:38:00,
2013-02-21 00:43:00,39.1,30.9,30.15,West,267,0.0,0.0,72,0.00,,CLR,0.00,0.00,VWS V14.00,2013-02-21 05:43:00,
2013-02-21 00:48:00,38.9,30.3,30.16,West,267,0.0,0.0,71,0.00,,CLR,0.00,0.00,VWS V14.00,2013-02-21 05:48:00,
2013-02-21 00:53:00,38.8,30.6,30.16,West,267,0.0,0.0,72,0.00,,CLR,0.00,0.00,VWS V14.00,2013-02-21 05:53:00,
2013-02-21 00:58:00,38.8,30.6,30.16,West,267,0.0,0.0,72,0.00,,CLR,0.00,0.00,VWS V14.00,2013-02-21 05:58:00,
2013-02-21 01:03:00,38.6,30.7,30.16,West,267,0.0,0.0,73,0.00,,CLR,0.00,0.00,VWS V14.00,2013-02-21 06:03:00,
2013-02-21 01:08:00,38.6,31.0,30.16,West,267,0.0,0.0,74,0.00,,CLR,0.00,0.00,VWS V14.00,2013-02-21 06:08:00,
2013-02-21 01:13:00,38.5,31.0,30.16,West,267,0.0,0.0,74,0.00,,CLR,0.00,0.00,VWS V14.00,2013-02-21 06:13:00,
2013-02-21 01:18:00,38.5,31.0,30.16,West,267,0.0,0.0,74,0.00,,CLR,0.00,0.00,VWS V14.00,2013-02-21 06:18:00,
2013-02-21 01:23:00,38.3,30.4,30.16,West,267,0.0,0.0,73,0.00,,CLR,0.00,0.00,VWS V14.00,2013-02-21 06:23:00,
2013-02-21 01:28:00,38.2,30.3,30.16,West,267,0.0,0.0,73,0.00,,CLR,0.00,0.00,VWS V14.00,2013-02-21 06:28:00,
2013-02-21 01:33:00,38.2,30.3,30.16,West,267,0.0,0.0,73,0.00,,CLR,0.00,0.00,VWS V14.00,2013-02-21 06:33:00,
2013-02-21 01:38:00,38.0,30.1,30.16,West,267,0.0,0.0,73,0.00,,CLR,0.00,0.00,VWS V14.00,2013-02-21 06:38:00,
2013-02-21 01:43:00,38.0,30.5,30.16,West,267,0.0,0.0,74,0.00,,FEW110,0.00,0.00,VWS V14.00,2013-02-21 06:43:00,
2013-02-21 01:48:00,37.9,30.4,30.16,West,267,0.0,0.0,74,0.00,,FEW110,0.00,0.00,VWS V14.00,2013-02-21 06:48:00,
2013-02-21 01:53:00,37.8,30.3,30.16,West,260,0.0,0.0,74,0.00,,FEW110,0.00,0.00,VWS V14.00,2013-02-21 06:53:00,
2013-02-21 01:58:00,37.8,30.3,30.16,West,267,0.0,0.0,74,0.00,,FEW110,0.00,0.00,VWS V14.00,2013-02-21 06:58:00,
2013-02-21 02:03:00,37.6,29.7,30.15,West,267,0.0,0.0,73,0.00,,FEW110,0.00,0.00,VWS V14.00,2013-02-21 07:03:00,
2013-02-21 02:08:00,37.6,29.4,30.15,West,267,0.0,0.0,72,0.00,,FEW110,0.00,0.00,VWS V14.00,2013-02-21 07:08:00,
2013-02-21 02:13:00,37.5,29.3,30.15,West,267,0.0,0.0,72,0.00,,FEW110,0.00,0.00,VWS V14.00,2013-02-21 07:13:00,
2013-02-21 02:18:00,37.3,29.5,30.15,West,267,0.0,0.0,73,0.00,,FEW110,0.00,0.00,VWS V14.00,2013-02-21 07:18:00,
2013-02-21 02:23:00,37.3,29.5,30.15,West,267,0.0,0.0,73,0.00,,FEW110,0.00,0.00,VWS V14.00,2013-02-21 07:23:00,
2013-02-21 02:28:00,37.2,29.4,30.15,West,267,0.0,0.0,73,0.00,,FEW110,0.00,0.00,VWS V14.00,2013-02-21 07:28:00,
2013-02-21 02:33:00,37.0,29.2,30.16,West,267,0.0,0.0,73,0.00,,FEW110,0.00,0.00,VWS V14.00,2013-02-21 07:33:00,
2013-02-21 02:38:00,37.0,29.5,30.16,West,267,0.0,0.0,74,0.00,,FEW110,0.00,0.00,VWS V14.00,2013-02-21 07:38:00,
2013-02-21 02:43:00,36.9,29.1,30.16,West,267,0.0,0.0,73,0.00,,FEW110,0.00,0.00,VWS V14.00,2013-02-21 07:43:00,
2013-02-21 02:48:00,36.8,29.0,30.16,West,267,0.0,0.0,73,0.00,,FEW110,0.00,0.00,VWS V14.00,2013-02-21 07:48:00,
2013-02-21 02:53:00,36.6,28.8,30.16,West,267,0.0,0.0,73,0.00,,FEW110,0.00,0.00,VWS V14.00,2013-02-21 07:53:00,
2013-02-21 02:58:00,36.5,28.7,30.16,West,267,0.0,0.0,73,0.00,,FEW110,0.00,0.00,VWS V14.00,2013-02-21 07:58:00,
2013-02-21 03:03:00,36.3,28.5,30.15,West,267,0.0,0.0,73,0.00,,CLR,0.00,0.00,VWS V14.00,2013-02-21 08:03:00,
2013-02-21 03:08:00,36.2,28.7,30.15,West,267,0.0,0.0,74,0.00,,CLR,0.00,0.00,VWS V14.00,2013-02-21 08:08:00,
2013-02-21 03:13:00,36.0,28.5,30.15,West,267,0.0,0.0,74,0.00,,CLR,0.00,0.00,VWS V14.00,2013-02-21 08:13:00,
2013-02-21 03:18:00,35.9,28.4,30.15,West,267,0.0,0.0,74,0.00,,CLR,0.00,0.00,VWS V14.00,2013-02-21 08:18:00,
2013-02-21 03:23:00,35.8,28.3,30.15,West,267,0.0,0.0,74,0.00,,CLR,0.00,0.00,VWS V14.00,2013-02-21 08:23:00,
2013-02-21 03:28:00,35.6,28.1,30.15,West,267,0.0,0.0,74,0.00,,CLR,0.00,0.00,VWS V14.00,2013-02-21 08:28:00,
2013-02-21 03:33:00,35.5,27.7,30.15,West,267,0.0,0.0,73,0.00,,CLR,0.00,0.00,VWS V14.00,2013-02-21 08:33:00,
2013-02-21 03:38:00,35.3,27.5,30.15,West,267,0.0,0.0,73,0.00,,CLR,0.00,0.00,VWS V14.00,2013-02-21 08:38:00,
2013-02-21 03:43:00,35.2,28.1,30.15,West,267,0.0,0.0,75,0.00,,CLR,0.00,0.00,VWS V14.00,2013-02-21 08:43:00,
2013-02-21 03:48:00,35.2,28.4,30.15,West,267,0.0,0.0,76,0.00,,CLR,0.00,0.00,VWS V14.00,2013-02-21 08:48:00,
2013-02-21 03:53:00,35.0,28.2,30.15,West,267,0.0,0.0,76,0.00,,CLR,0.00,0.00,VWS V14.00,2013-02-21 08:53:00,
2013-02-21 03:58:00,35.0,28.2,30.15,West,267,0.0,0.0,76,0.00,,CLR,0.00,0.00,VWS V14.00,2013-02-21 08:58:00,
2013-02-21 04:03:00,34.9,28.1,30.16,West,267,0.0,0.0,76,0.00,,CLR,0.00,0.00,VWS V14.00,2013-02-21 09:03:00,
2013-02-21 04:08:00,34.7,27.9,30.16,West,267,0.0,0.0,76,0.00,,CLR,0.00,0.00,VWS V14.00,2013-02-21 09:08:00,
2013-02-21 04:13:00,34.7,28.2,30.16,West,267,0.0,0.0,77,0.00,,CLR,0.00,0.00,VWS V14.00,2013-02-21 09:13:00,
2013-02-21 04:18:00,34.6,28.5,30.16,West,260,0.0,0.0,78,0.00,,CLR,0.00,0.00,VWS V14.00,2013-02-21 09:18:00,
2013-02-21 04:23:00,34.4,28.3,30.16,West,267,0.0,0.0,78,0.00,,CLR,0.00,0.00,VWS V14.00,2013-02-21 09:23:00,
2013-02-21 04:28:00,34.3,28.5,30.16,West,267,0.0,0.0,79,0.00,,CLR,0.00,0.00,VWS V14.00,2013-02-21 09:28:00,
2013-02-21 04:33:00,34.3,28.8,30.15,West,267,0.0,0.0,80,0.00,,CLR,0.00,0.00,VWS V14.00,2013-02-21 09:33:00,
2013-02-21 04:38:00,34.1,28.6,30.15,West,267,0.0,0.0,80,0.00,,CLR,0.00,0.00,VWS V14.00,2013-02-21 09:38:00,
2013-02-21 04:43:00,34.1,28.9,30.15,West,267,0.0,0.0,81,0.00,,CLR,0.00,0.00,VWS V14.00,2013-02-21 09:43:00,
2013-02-21 04:48:00,34.0,28.8,30.16,West,267,0.0,0.0,81,0.00,,CLR,0.00,0.00,VWS V14.00,2013-02-21 09:48:00,
2013-02-21 04:53:00,33.8,28.6,30.16,West,267,0.0,0.0,81,0.00,,CLR,0.00,0.00,VWS V14.00,2013-02-21 09:53:00,
2013-02-21 04:58:00,33.7,28.5,30.16,West,267,0.0,0.0,81,0.00,,CLR,0.00,0.00,VWS V14.00,2013-02-21 09:58:00,
2013-02-21 05:03:00,33.7,28.5,30.17,West,267,0.0,0.0,81,0.00,,CLR,0.00,0.00,VWS V14.00,2013-02-21 10:03:00,
2013-02-21 05:09:00,33.5,28.3,30.17,West,267,0.0,0.0,81,0.00,,CLR,0.00,0.00,VWS V14.00,2013-02-21 10:09:00,
2013-02-21 05:14:00,33.4,28.5,30.17,West,267,0.0,0.0,82,0.00,,CLR,0.00,0.00,VWS V14.00,2013-02-21 10:14:00,
2013-02-21 05:19:00,33.4,28.5,30.17,West,267,0.0,0.0,82,0.00,,CLR,0.00,0.00,VWS V14.00,2013-02-21 10:19:00,
2013-02-21 05:24:00,33.2,28.3,30.17,West,267,0.0,0.0,82,0.00,,CLR,0.00,0.00,VWS V14.00,2013-02-21 10:24:00,
2013-02-21 05:29:00,33.1,28.5,30.17,West,267,0.0,0.0,83,0.00,,CLR,0.00,0.00,VWS V14.00,2013-02-21 10:29:00,
2013-02-21 05:34:00,33.1,28.5,30.17,West,267,0.0,0.0,83,0.00,,CLR,0.00,0.00,VWS V14.00,2013-02-21 10:34:00,
2013-02-21 05:39:00,32.9,28.3,30.17,West,267,0.0,0.0,83,0.00,,CLR,0.00,0.00,VWS V14.00,2013-02-21 10:39:00,
2013-02-21 05:44:00,32.9,28.6,30.17,West,267,0.0,0.0,84,0.00,,CLR,0.00,0.00,VWS V14.00,2013-02-21 10:44:00,
2013-02-21 05:49:00,32.8,28.5,30.17,West,267,0.0,0.0,84,0.00,,CLR,0.00,0.00,VWS V14.00,2013-02-21 10:49:00,
2013-02-21 05:54:00,32.8,28.5,30.17,West,267,0.0,0.0,84,0.00,,CLR,0.00,0.00,VWS V14.00,2013-02-21 10:54:00,
2013-02-21 05:59:00,32.7,28.4,30.17,West,267,0.0,0.0,84,0.00,,CLR,0.00,0.00,VWS V14.00,2013-02-21 10:59:00,
2013-02-21 06:04:00,32.5,27.9,30.18,West,267,0.0,0.0,83,0.00,,CLR,0.00,0.00,VWS V14.00,2013-02-21 11:04:00,
2013-02-21 06:09:00,32.5,27.9,30.18,West,267,0.0,0.0,83,0.00,,CLR,0.00,0.00,VWS V14.00,2013-02-21 11:09:00,
2013-02-21 06:14:00,32.4,27.5,30.18,West,267,0.0,1.0,82,0.00,,CLR,0.00,0.00,VWS V14.00,2013-02-21 11:14:00,
2013-02-21 06:19:00,32.7,26.6,30.19,North,0,0.0,1.0,78,0.00,,CLR,0.00,0.00,VWS V14.00,2013-02-21 11:19:00,
2013-02-21 06:24:00,33.4,25.7,30.19,NE,41,0.0,0.0,73,0.00,,CLR,0.00,0.00,VWS V14.00,2013-02-21 11:24:00,
2013-02-21 06:29:00,34.0,25.6,30.19,NE,41,0.0,0.0,71,0.00,,CLR,0.00,0.00,VWS V14.00,2013-02-21 11:29:00,
2013-02-21 06:34:00,34.3,24.9,30.19,NE,41,0.0,0.0,68,0.00,,CLR,0.00,0.00,VWS V14.00,2013-02-21 11:34:00,
2013-02-21 06:39:00,34.6,24.8,30.19,NE,41,0.0,0.0,67,0.00,,CLR,0.00,0.00,VWS V14.00,2013-02-21 11:39:00,
2013-02-21 06:44:00,34.9,24.7,30.19,NE,41,0.0,0.0,66,0.00,,CLR,0.00,0.00,VWS V14.00,2013-02-21 11:44:00,
2013-02-21 06:49:00,34.9,24.7,30.19,NE,42,0.0,1.0,66,0.00,,CLR,0.00,0.00,VWS V14.00,2013-02-21 11:49:00,
2013-02-21 06:54:00,35.0,24.8,30.19,NE,42,0.0,0.0,66,0.00,,CLR,0.00,0.00,VWS V14.00,2013-02-21 11:54:00,
2013-02-21 06:59:00,35.0,24.4,30.19,NE,42,0.0,0.0,65,0.00,,CLR,0.00,0.00,VWS V14.00,2013-02-21 11:59:00,
2013-02-21 07:04:00,35.0,24.4,30.20,NE,42,0.0,0.0,65,0.00,,CLR,0.00,0.00,VWS V14.00,2013-02-21 12:04:00,
2013-02-21 07:09:00,35.0,24.1,30.20,NE,42,0.0,0.0,64,0.00,,CLR,0.00,0.00,VWS V14.00,2013-02-21 12:09:00,
2013-02-21 07:14:00,35.0,24.4,30.20,NE,42,0.0,0.0,65,0.00,,CLR,0.00,9.00,VWS V14.00,2013-02-21 12:14:00,
2013-02-21 07:19:00,35.0,24.4,30.20,NE,42,0.0,0.0,65,0.00,,CLR,0.00,11.00,VWS V14.00,2013-02-21 12:19:00,
2013-02-21 07:24:00,35.0,24.1,30.20,NE,42,0.0,0.0,64,0.00,,CLR,0.00,12.00,VWS V14.00,2013-02-21 12:24:00,
2013-02-21 07:29:00,34.9,24.3,30.20,NE,42,0.0,0.0,65,0.00,,CLR,0.00,12.00,VWS V14.00,2013-02-21 12:29:00,
2013-02-21 07:34:00,34.9,24.0,30.22,NE,42,0.0,0.0,64,0.00,,CLR,0.00,11.00,VWS V14.00,2013-02-21 12:34:00,
2013-02-21 07:39:00,35.0,24.4,30.22,NE,42,0.0,0.0,65,0.00,,CLR,0.00,14.00,VWS V14.00,2013-02-21 12:39:00,
2013-02-21 07:44:00,35.0,24.1,30.22,NE,42,0.0,0.0,64,0.00,,CLR,0.00,19.00,VWS V14.00,2013-02-21 12:44:00,
2013-02-21 07:49:00,35.0,24.4,30.22,NE,42,0.0,0.0,65,0.00,,CLR,0.00,19.00,VWS V14.00,2013-02-21 12:49:00,
2013-02-21 07:54:00,35.2,24.3,30.22,East,88,0.0,1.0,64,0.00,,CLR,0.00,21.00,VWS V14.00,2013-02-21 12:54:00,
2013-02-21 07:59:00,35.3,24.0,30.22,East,96,0.0,1.0,63,0.00,,CLR,0.00,25.00,VWS V14.00,2013-02-21 12:59:00,
2013-02-21 08:04:00,35.6,23.9,30.23,ESE,109,0.0,1.0,62,0.00,,CLR,0.00,26.00,VWS V14.00,2013-02-21 13:04:00,
2013-02-21 08:09:00,35.9,23.8,30.23,East,83,0.0,2.0,61,0.00,,CLR,0.00,26.00,VWS V14.00,2013-02-21 13:09:00,
2013-02-21 08:14:00,36.2,23.7,30.23,ENE,75,0.0,2.0,60,0.00,,CLR,0.00,28.00,VWS V14.00,2013-02-21 13:14:00,
2013-02-21 08:19:00,36.5,23.5,30.24,NNE,13,0.0,3.0,59,0.00,,CLR,0.00,28.00,VWS V14.00,2013-02-21 13:19:00,
2013-02-21 08:24:00,36.9,23.1,30.24,ENE,73,0.0,2.0,57,0.00,,CLR,0.00,30.00,VWS V14.00,2013-02-21 13:24:00,
2013-02-21 08:29:00,37.3,22.6,30.24,East,97,0.0,4.0,55,0.00,,CLR,0.00,30.00,VWS V14.00,2013-02-21 13:29:00,
2013-02-21 08:34:00,37.9,22.8,30.24,ENE,78,0.0,3.0,54,0.00,,CLR,0.00,32.00,VWS V14.00,2013-02-21 13:34:00,
2013-02-21 08:39:00,38.3,22.2,30.24,ESE,110,0.0,5.0,52,0.00,,CLR,0.00,32.00,VWS V14.00,2013-02-21 13:39:00,
2013-02-21 08:44:00,38.8,22.7,30.24,East,79,0.0,3.0,52,0.00,,CLR,0.00,32.00,VWS V14.00,2013-02-21 13:44:00,
2013-02-21 08:49:00,39.2,22.1,30.24,East,93,0.0,6.0,50,0.00,,CLR,0.00,280.00,VWS V14.00,2013-02-21 13:49:00,
2013-02-21 08:54:00,39.8,22.7,30.24,East,99,0.0,5.0,50,0.00,,CLR,0.00,294.00,VWS V14.00,2013-02-21 13:54:00,
2013-02-21 08:59:00,40.1,22.5,30.24,NE,56,2.0,7.0,49,0.00,,CLR,0.00,315.00,VWS V14.00,2013-02-21 13:59:00,
2013-02-21 09:04:00,40.5,22.9,30.24,East,89,2.0,4.0,49,0.00,,CLR,0.00,331.00,VWS V14.00,2013-02-21 14:04:00,
2013-02-21 09:09:00,40.8,23.1,30.24,ENE,59,1.0,4.0,49,0.00,,CLR,0.00,348.00,VWS V14.00,2013-02-21 14:09:00,
2013-02-21 09:14:00,41.2,23.0,30.24,East,95,3.0,3.0,48,0.00,,CLR,0.00,364.00,VWS V14.00,2013-02-21 14:14:00,
2013-02-21 09:19:00,41.8,23.1,30.25,ENE,78,2.0,3.0,47,0.00,,CLR,0.00,378.00,VWS V14.00,2013-02-21 14:19:00,
2013-02-21 09:24:00,42.3,23.0,30.25,East,97,0.0,3.0,46,0.00,,CLR,0.00,394.00,VWS V14.00,2013-02-21 14:24:00,
2013-02-21 09:29:00,42.9,23.6,30.25,NE,40,0.0,3.0,46,0.00,,CLR,0.00,412.00,VWS V14.00,2013-02-21 14:29:00,
2013-02-21 09:34:00,43.3,23.9,30.25,East,89,0.0,2.0,46,0.00,,CLR,0.00,428.00,VWS V14.00,2013-02-21 14:34:00,
2013-02-21 09:39:00,43.9,23.4,30.25,SE,131,0.0,2.0,44,0.00,,CLR,0.00,447.00,VWS V14.00,2013-02-21 14:39:00,
2013-02-21 09:44:00,44.8,22.5,30.25,East,93,2.0,7.0,41,0.00,,CLR,0.00,449.00,VWS V14.00,2013-02-21 14:44:00,
2013-02-21 09:49:00,45.4,23.7,30.25,ESE,121,0.0,7.0,42,0.00,,CLR,0.00,452.00,VWS V14.00,2013-02-21 14:49:00,
2013-02-21 09:54:00,45.7,23.9,30.25,ESE,107,0.0,2.0,42,0.00,,CLR,0.00,452.00,VWS V14.00,2013-02-21 14:54:00,
2013-02-21 09:59:00,46.0,24.2,30.25,NE,51,1.0,2.0,42,0.00,,CLR,0.00,493.00,VWS V14.00,2013-02-21 14:59:00,
2013-02-21 10:04:00,46.4,24.0,30.25,ENE,76,0.0,2.0,41,0.00,,CLR,0.00,473.00,VWS V14.00,2013-02-21 15:04:00,
2013-02-21 10:09:00,46.8,23.8,30.25,East,80,0.0,3.0,40,0.00,,CLR,0.00,516.00,VWS V14.00,2013-02-21 15:09:00,
2013-02-21 10:14:00,47.3,24.8,30.25,SE,127,1.0,3.0,41,0.00,,CLR,0.00,537.00,VWS V14.00,2013-02-21 15:14:00,
2013-02-21 10:19:00,47.9,24.1,30.24,East,99,0.0,3.0,39,0.00,,CLR,0.00,551.00,VWS V14.00,2013-02-21 15:19:00,
2013-02-21 10:24:00,48.3,23.9,30.24,SSE,158,0.0,2.0,38,0.00,,CLR,0.00,561.00,VWS V14.00,2013-02-21 15:24:00,
2013-02-21 10:29:00,48.9,23.8,30.24,ENE,65,0.0,3.0,37,0.00,,CLR,0.00,567.00,VWS V14.00,2013-02-21 15:29:00,
2013-02-21 10:34:00,49.4,24.9,30.24,SSE,155,0.0,3.0,38,0.00,,CLR,0.00,582.00,VWS V14.00,2013-02-21 15:34:00,
2013-02-21 10:39:00,49.8,24.6,30.24,ENE,66,0.0,3.0,37,0.00,,CLR,0.00,593.00,VWS V14.00,2013-02-21 15:39:00,
2013-02-21 10:44:00,50.2,24.3,30.23,SSE,165,0.0,3.0,36,0.00,,CLR,0.00,605.00,VWS V14.00,2013-02-21 15:44:00,
2013-02-21 10:49:00,50.5,25.2,30.23,NNE,31,0.0,3.0,37,0.00,,CLR,0.00,616.00,VWS V14.00,2013-02-21 15:49:00,
2013-02-21 10:54:00,50.8,25.5,30.23,NNE,31,0.0,2.0,37,0.00,,CLR,0.00,625.00,VWS V14.00,2013-02-21 15:54:00,
2013-02-21 10:59:00,51.0,24.3,30.23,ENE,66,1.0,2.0,35,0.00,,CLR,0.00,633.00,VWS V14.00,2013-02-21 15:59:00,
2013-02-21 11:04:00,51.4,24.7,30.23,East,79,0.0,2.0,35,0.00,,CLR,0.00,644.00,VWS V14.00,2013-02-21 16:04:00,
2013-02-21 11:09:00,51.9,25.8,30.23,ESE,106,0.0,2.0,36,0.00,,CLR,0.00,651.00,VWS V14.00,2013-02-21 16:09:00,
2013-02-21 11:14:00,52.5,25.0,30.23,NE,55,0.0,0.0,34,0.00,,CLR,0.00,658.00,VWS V14.00,2013-02-21 16:14:00,
2013-02-21 11:19:00,52.9,24.6,30.23,NE,38,1.0,2.0,33,0.00,,CLR,0.00,670.00,VWS V14.00,2013-02-21 16:19:00,
2013-02-21 11:24:00,53.3,25.0,30.23,NE,42,0.0,2.0,33,0.00,,CLR,0.00,676.00,VWS V14.00,2013-02-21 16:24:00,
2013-02-21 11:29:00,53.5,23.6,30.23,SE,145,0.0,3.0,31,0.00,,CLR,0.00,683.00,VWS V14.00,2013-02-21 16:29:00,
2013-02-21 11:34:00,53.9,23.2,30.23,WSW,244,2.0,4.0,30,0.00,,CLR,0.00,684.00,VWS V14.00,2013-02-21 16:34:00,
2013-02-21 11:39:00,54.2,23.5,30.23,ENE,72,0.0,4.0,30,0.00,,CLR,0.00,690.00,VWS V14.00,2013-02-21 16:39:00,
2013-02-21 11:44:00,54.7,23.1,30.22,ESE,106,1.0,5.0,29,0.00,,CLR,0.00,699.00,VWS V14.00,2013-02-21 16:44:00,
2013-02-21 11:49:00,54.8,24.0,30.22,East,99,1.0,5.0,30,0.00,,CLR,0.00,706.00,VWS V14.00,2013-02-21 16:49:00,
2013-02-21 11:54:00,55.1,23.4,30.22,SSE,168,0.0,3.0,29,0.00,,CLR,0.00,716.00,VWS V14.00,2013-02-21 16:54:00,
2013-02-21 11:59:00,55.6,23.0,30.22,SSW,212,0.0,3.0,28,0.00,,CLR,0.00,720.00,VWS V14.00,2013-02-21 16:59:00,
2013-02-21 12:04:00,56.2,22.7,30.22,SSW,203,0.0,5.0,27,0.00,,CLR,0.00,720.00,VWS V14.00,2013-02-21 17:04:00,
2013-02-21 12:09:00,56.7,24.0,30.22,East,92,2.0,5.0,28,0.00,,CLR,0.00,723.00,VWS V14.00,2013-02-21 17:09:00,
2013-02-21 12:14:00,56.9,23.3,30.21,East,93,0.0,2.0,27,0.00,,CLR,0.00,723.00,VWS V14.00,2013-02-21 17:14:00,
2013-02-21 12:19:00,57.5,25.5,30.21,ESE,123,0.0,2.0,29,0.00,,CLR,0.00,732.00,VWS V14.00,2013-02-21 17:19:00,
2013-02-21 12:24:00,58.1,23.4,30.21,South,172,0.0,2.0,26,0.00,,CLR,0.00,730.00,VWS V14.00,2013-02-21 17:24:00,
2013-02-21 12:29:00,58.4,22.7,30.20,ENE,78,0.0,6.0,25,0.00,,CLR,0.00,704.00,VWS V14.00,2013-02-21 17:29:00,
2013-02-21 12:34:00,59.0,25.1,30.20,SW,226,0.0,4.0,27,0.00,,CLR,0.00,737.00,VWS V14.00,2013-02-21 17:34:00,
2013-02-21 12:39:00,59.2,24.4,30.20,NE,45,0.0,4.0,26,0.00,,CLR,0.00,732.00,VWS V14.00,2013-02-21 17:39:00,
2013-02-21 12:44:00,59.5,25.5,30.19,SSE,164,1.0,2.0,27,0.00,,CLR,0.00,730.00,VWS V14.00,2013-02-21 17:44:00,
2013-02-21 12:49:00,59.8,23.9,30.19,SSW,209,3.0,3.0,25,0.00,,CLR,0.00,734.00,VWS V14.00,2013-02-21 17:49:00,
2013-02-21 12:54:00,60.4,25.4,30.19,SW,227,0.0,3.0,26,0.00,,CLR,0.00,735.00,VWS V14.00,2013-02-21 17:54:00,
2013-02-21 12:59:00,60.9,25.8,30.18,SW,227,0.0,3.0,26,0.00,,CLR,0.00,727.00,VWS V14.00,2013-02-21 17:59:00,
2013-02-21 13:04:00,61.5,25.4,30.18,WSW,239,0.0,3.0,25,0.00,,CLR,0.00,735.00,VWS V14.00,2013-02-21 18:04:00,
2013-02-21 13:09:00,61.8,24.6,30.18,WSW,257,2.0,7.0,24,0.00,,CLR,0.00,718.00,VWS V14.00,2013-02-21 18:09:00,
2013-02-21 13:14:00,62.0,24.8,30.17,West,260,0.0,3.0,24,0.00,,CLR,0.00,707.00,VWS V14.00,2013-02-21 18:14:00,
2013-02-21 13:19:00,62.3,25.1,30.17,SW,226,0.0,5.0,24,0.00,,CLR,0.00,706.00,VWS V14.00,2013-02-21 18:19:00,
2013-02-21 13:24:00,62.4,25.2,30.17,South,189,1.0,7.0,24,0.00,,CLR,0.00,714.00,VWS V14.00,2013-02-21 18:24:00,
2013-02-21 13:29:00,62.7,25.4,30.16,ESE,112,1.0,7.0,24,0.00,,CLR,0.00,714.00,VWS V14.00,2013-02-21 18:29:00,
2013-02-21 13:34:00,62.9,27.5,30.16,SW,220,1.0,1.0,26,0.00,,CLR,0.00,711.00,VWS V14.00,2013-02-21 18:34:00,
2013-02-21 13:39:00,63.5,26.1,30.16,SW,216,3.0,6.0,24,0.00,,CLR,0.00,706.00,VWS V14.00,2013-02-21 18:39:00,
2013-02-21 13:45:00,64.2,26.7,30.14,SSW,213,0.0,6.0,24,0.00,,CLR,0.00,699.00,VWS V14.00,2013-02-21 18:45:00,
2013-02-21 13:50:00,64.5,26.9,30.14,SW,224,0.0,6.0,24,0.00,,CLR,0.00,693.00,VWS V14.00,2013-02-21 18:50:00,
2013-02-21 13:55:00,64.8,26.2,30.14,South,178,0.0,5.0,23,0.00,,CLR,0.00,688.00,VWS V14.00,2013-02-21 18:55:00,
2013-02-21 14:00:00,65.2,27.5,30.13,SW,223,0.0,5.0,24,0.00,,CLR,0.00,681.00,VWS V14.00,2013-02-21 19:00:00,
2013-02-21 14:05:00,65.3,27.6,30.13,South,185,0.0,5.0,24,0.00,,CLR,0.00,676.00,VWS V14.00,2013-02-21 19:05:00,
2013-02-21 14:10:00,65.6,28.9,30.13,South,182,0.0,5.0,25,0.00,,CLR,0.00,662.00,VWS V14.00,2013-02-21 19:10:00,
2013-02-21 14:15:00,66.1,27.2,30.13,SSW,206,0.0,2.0,23,0.00,,CLR,0.00,655.00,VWS V14.00,2013-02-21 19:15:00,
2013-02-21 14:20:00,66.4,28.5,30.13,SSW,205,0.0,2.0,24,0.00,,CLR,0.00,649.00,VWS V14.00,2013-02-21 19:20:00,
2013-02-21 14:25:00,66.4,27.5,30.13,East,96,0.0,3.0,23,0.00,,CLR,0.00,648.00,VWS V14.00,2013-02-21 19:25:00,
2013-02-21 14:30:00,65.6,27.9,30.12,NE,38,0.0,5.0,24,0.00,,CLR,0.00,632.00,VWS V14.00,2013-02-21 19:30:00,
2013-02-21 14:35:00,65.8,30.0,30.12,North,0,0.0,7.0,26,0.00,,CLR,0.00,621.00,VWS V14.00,2013-02-21 19:35:00,
2013-02-21 14:44:00,66.4,29.5,30.12,SW,227,2.0,6.0,25,0.00,,CLR,0.00,611.00,VWS V14.00,2013-02-21 19:44:00,
2013-02-21 14:49:00,66.8,28.9,30.11,SSE,155,0.0,6.0,24,0.00,,CLR,0.00,600.00,VWS V14.00,2013-02-21 19:49:00,
2013-02-21 14:54:00,67.3,28.3,30.11,WSW,250,5.0,6.0,23,0.00,,CLR,0.00,589.00,VWS V14.00,2013-02-21 19:54:00,
2013-02-21 14:59:00,67.3,28.3,30.11,WSW,248,6.0,7.0,23,0.00,,CLR,0.00,577.00,VWS V14.00,2013-02-21 19:59:00,
2013-02-21 15:04:00,67.3,28.3,30.11,SW,223,2.0,3.0,23,0.00,,CLR,0.00,531.00,VWS V14.00,2013-02-21 20:04:00,
2013-02-21 15:09:00,67.4,28.4,30.11,SW,222,0.0,6.0,23,0.00,,CLR,0.00,568.00,VWS V14.00,2013-02-21 20:09:00,
2013-02-21 15:14:00,67.4,28.4,30.11,East,100,1.0,1.0,23,0.00,,CLR,0.00,479.00,VWS V14.00,2013-02-21 20:14:00,
2013-02-21 15:19:00,67.6,29.6,30.12,SSW,199,0.0,3.0,24,0.00,,CLR,0.00,526.00,VWS V14.00,2013-02-21 20:19:00,
2013-02-21 15:24:00,67.9,28.8,30.12,SW,236,6.0,7.0,23,0.00,,CLR,0.00,503.00,VWS V14.00,2013-02-21 20:24:00,
2013-02-21 15:29:00,67.9,27.7,30.12,WSW,243,0.0,7.0,22,0.00,,CLR,0.00,528.00,VWS V14.00,2013-02-21 20:29:00,
2013-02-21 15:34:00,68.3,30.1,30.11,SSW,195,1.0,2.0,24,0.00,,CLR,0.00,373.00,VWS V14.00,2013-02-21 20:34:00,
2013-02-21 15:39:00,67.8,29.7,30.11,NE,51,0.0,2.0,24,0.00,,CLR,0.00,373.00,VWS V14.00,2013-02-21 20:39:00,
2013-02-21 15:44:00,67.8,30.7,30.11,SSE,168,0.0,0.0,25,0.00,,CLR,0.00,341.00,VWS V14.00,2013-02-21 20:44:00,
2013-02-21 15:49:00,67.8,29.7,30.11,SE,141,0.0,5.0,24,0.00,,CLR,0.00,343.00,VWS V14.00,2013-02-21 20:49:00,
2013-02-21 15:54:00,67.4,29.4,30.11,South,174,0.0,0.0,24,0.00,,CLR,0.00,392.00,VWS V14.00,2013-02-21 20:54:00,
2013-02-21 15:59:00,67.3,30.3,30.11,SE,138,0.0,2.0,25,0.00,,CLR,0.00,445.00,VWS V14.00,2013-02-21 20:59:00,
2013-02-21 16:04:00,67.1,29.1,30.11,South,185,0.0,0.0,24,0.00,,CLR,0.00,445.00,VWS V14.00,2013-02-21 21:04:00,
2013-02-21 16:09:00,67.1,30.1,30.11,South,185,0.0,0.0,25,0.00,,CLR,0.00,162.00,VWS V14.00,2013-02-21 21:09:00,
2013-02-21 16:14:00,66.9,31.9,30.11,South,185,0.0,0.0,27,0.00,,CLR,0.00,192.00,VWS V14.00,2013-02-21 21:14:00,
2013-02-21 16:19:00,66.8,30.8,30.11,South,185,0.0,0.0,26,0.00,,CLR,0.00,222.00,VWS V14.00,2013-02-21 21:19:00,
2013-02-21 16:24:00,66.4,29.5,30.11,South,182,0.0,0.0,25,0.00,,CLR,0.00,148.00,VWS V14.00,2013-02-21 21:24:00,
2013-02-21 16:29:00,66.3,30.4,30.11,SE,136,0.0,2.0,26,0.00,,CLR,0.00,271.00,VWS V14.00,2013-02-21 21:29:00,
2013-02-21 16:34:00,66.1,29.3,30.11,SE,138,0.0,1.0,25,0.00,,CLR,0.00,151.00,VWS V14.00,2013-02-21 21:34:00,
2013-02-21 16:39:00,66.0,30.2,30.11,South,169,0.0,1.0,26,0.00,,CLR,0.00,151.00,VWS V14.00,2013-02-21 21:39:00,
2013-02-21 16:44:00,66.0,30.2,30.11,SSE,167,0.0,0.0,26,0.00,,CLR,0.00,139.00,VWS V14.00,2013-02-21 21:44:00,
2013-02-21 16:49:00,66.0,31.1,30.11,SSW,196,0.0,3.0,27,0.00,,CLR,0.00,120.00,VWS V14.00,2013-02-21 21:49:00,
2013-02-21 16:54:00,65.8,30.9,30.11,SSW,198,0.0,3.0,27,0.00,,CLR,0.00,123.00,VWS V14.00,2013-02-21 21:54:00,
2013-02-21 16:59:00,65.5,30.7,30.11,South,186,0.0,3.0,27,0.00,,CLR,0.00,95.00,VWS V14.00,2013-02-21 21:59:00,
2013-02-21 17:04:00,65.3,30.5,30.11,SSW,195,1.0,1.0,27,0.00,,CLR,0.00,86.00,VWS V14.00,2013-02-21 22:04:00,
2013-02-21 17:09:00,65.2,30.4,30.11,SSW,209,2.0,3.0,27,0.00,,CLR,0.00,83.00,VWS V14.00,2013-02-21 22:09:00,
2013-02-21 17:14:00,65.0,31.1,30.11,SSW,205,0.0,1.0,28,0.00,,CLR,0.00,74.00,VWS V14.00,2013-02-21 22:14:00,
2013-02-21 17:19:00,64.8,31.0,30.12,SSW,205,0.0,1.0,28,0.00,,CLR,0.00,67.00,VWS V14.00,2013-02-21 22:19:00,
2013-02-21 17:24:00,64.5,31.6,30.12,SSW,205,0.0,0.0,29,0.00,,CLR,0.00,63.00,VWS V14.00,2013-02-21 22:24:00,
2013-02-21 17:29:00,64.3,31.4,30.12,SSW,205,0.0,0.0,29,0.00,,CLR,0.00,55.00,VWS V14.00,2013-02-21 22:29:00,
2013-02-21 17:34:00,64.0,31.1,30.12,SSW,205,0.0,0.0,29,0.00,,CLR,0.00,51.00,VWS V14.00,2013-02-21 22:34:00,
2013-02-21 17:39:00,63.9,31.9,30.12,SSW,205,0.0,0.0,30,0.00,,CLR,0.00,48.00,VWS V14.00,2013-02-21 22:39:00,
2013-02-21 17:44:00,63.5,32.3,30.12,SSW,205,0.0,0.0,31,0.00,,CLR,0.00,39.00,VWS V14.00,2013-02-21 22:44:00,
2013-02-21 17:49:00,63.1,35.0,30.12,East,80,0.0,2.0,35,0.00,,CLR,0.00,35.00,VWS V14.00,2013-02-21 22:49:00,
2013-02-21 17:54:00,62.4,36.5,30.12,East,80,0.0,0.0,38,0.00,,CLR,0.00,25.00,VWS V14.00,2013-02-21 22:54:00,
2013-02-21 17:59:00,62.0,35.5,30.12,East,80,0.0,0.0,37,0.00,,CLR,0.00,19.00,VWS V14.00,2013-02-21 22:59:00,
2013-02-21 18:04:00,61.6,34.4,30.11,East,80,0.0,0.0,36,0.00,,,0.00,14.00,VWS V14.00,2013-02-21 23:04:00,
2013-02-21 18:09:00,61.3,34.1,30.11,East,80,0.0,0.0,36,0.00,,,0.00,9.00,VWS V14.00,2013-02-21 23:09:00,
2013-02-21 18:14:00,60.7,34.3,30.11,East,85,0.0,0.0,37,0.00,,,0.00,5.00,VWS V14.00,2013-02-21 23:14:00,
2013-02-21 18:19:00,60.4,33.3,30.12,East,85,0.0,0.0,36,0.00,,,0.00,0.00,VWS V14.00,2013-02-21 23:19:00,
2013-02-21 18:24:00,59.9,33.6,30.12,East,85,0.0,0.0,37,0.00,,,0.00,0.00,VWS V14.00,2013-02-21 23:24:00,
2013-02-21 18:29:00,59.5,34.5,30.12,East,85,0.0,0.0,39,0.00,,,0.00,0.00,VWS V14.00,2013-02-21 23:29:00,
2013-02-21 18:34:00,59.2,34.3,30.12,East,85,0.0,0.0,39,0.00,,,0.00,0.00,VWS V14.00,2013-02-21 23:34:00,
2013-02-21 18:39:00,58.6,35.0,30.12,East,85,0.0,0.0,41,0.00,,,0.00,0.00,VWS V14.00,2013-02-21 23:39:00,
2013-02-21 18:44:00,58.3,34.1,30.12,East,85,0.0,0.0,40,0.00,,,0.00,0.00,VWS V14.00,2013-02-21 23:44:00,
2013-02-21 18:49:00,57.8,33.7,30.11,East,85,0.0,0.0,40,0.00,,,0.00,0.00,VWS V14.00,2013-02-21 23:49:00,
2013-02-21 18:54:00,57.3,33.8,30.11,East,85,0.0,0.0,41,0.00,,,0.00,0.00,VWS V14.00,2013-02-21 23:54:00,
2013-02-21 18:59:00,57.0,34.2,30.11,East,85,0.0,0.0,42,0.00,,,0.00,0.00,VWS V14.00,2013-02-21 23:59:00,
2013-02-21 19:04:00,56.7,33.9,30.11,East,85,0.0,0.0,42,0.00,,,0.00,0.00,VWS V14.00,2013-02-22 00:04:00,
2013-02-21 19:09:00,56.5,34.3,30.11,East,85,0.0,0.0,43,0.00,,,0.00,0.00,VWS V14.00,2013-02-22 00:09:00,
2013-02-21 19:14:00,56.0,35.0,30.11,ENE,71,0.0,1.0,45,0.00,,,0.00,0.00,VWS V14.00,2013-02-22 00:14:00,
2013-02-21 19:19:00,55.6,34.0,30.10,ENE,76,0.0,1.0,44,0.00,,,0.00,0.00,VWS V14.00,2013-02-22 00:19:00,
2013-02-21 19:24:00,55.4,33.9,30.10,ENE,76,0.0,0.0,44,0.00,,,0.00,0.00,VWS V14.00,2013-02-22 00:24:00,
2013-02-21 19:29:00,55.3,33.8,30.10,ENE,76,0.0,0.0,44,0.00,,,0.00,0.00,VWS V14.00,2013-02-22 00:29:00,
2013-02-21 19:34:00,55.0,34.6,30.11,NNE,14,0.0,0.0,46,0.00,,,0.00,0.00,VWS V14.00,2013-02-22 00:34:00,
2013-02-21 19:39:00,54.8,33.9,30.11,ESE,117,0.0,1.0,45,0.00,,,0.00,0.00,VWS V14.00,2013-02-22 00:39:00,
2013-02-21 19:44:00,54.7,33.8,30.11,East,80,0.0,2.0,45,0.00,,,0.00,0.00,VWS V14.00,2013-02-22 00:44:00,
2013-02-21 19:49:00,54.7,34.3,30.11,ENE,58,0.0,2.0,46,0.00,,,0.00,0.00,VWS V14.00,2013-02-22 00:49:00,
2013-02-21 19:54:00,54.5,34.2,30.11,ESE,117,0.0,2.0,46,0.00,,,0.00,0.00,VWS V14.00,2013-02-22 00:54:00,
2013-02-21 19:59:00,54.4,34.6,30.13,ESE,119,0.0,2.0,47,0.00,,,0.00,0.00,VWS V14.00,2013-02-22 00:59:00,
2013-02-21 20:04:00,54.4,33.5,30.13,ESE,117,0.0,1.0,45,0.00,,CLR,0.00,0.00,VWS V14.00,2013-02-22 01:04:00,
2013-02-21 20:09:00,54.4,33.5,30.13,ESE,117,0.0,1.0,45,0.00,,CLR,0.00,0.00,VWS V14.00,2013-02-22 01:09:00,
2013-02-21 20:14:00,54.4,33.5,30.12,ESE,117,0.0,0.0,45,0.00,,CLR,0.00,0.00,VWS V14.00,2013-02-22 01:14:00,
2013-02-21 20:19:00,54.2,33.3,30.12,SSE,164,0.0,1.0,45,0.00,,CLR,0.00,0.00,VWS V14.00,2013-02-22 01:19:00,
2013-02-21 20:24:00,54.2,33.3,30.12,SSE,157,0.0,0.0,45,0.00,,CLR,0.00,0.00,VWS V14.00,2013-02-22 01:24:00,
2013-02-21 20:29:00,54.2,33.3,30.12,SSE,168,0.0,2.0,45,0.00,,CLR,0.00,0.00,VWS V14.00,2013-02-22 01:29:00,
2013-02-21 20:34:00,54.2,33.9,30.12,SE,131,0.0,1.0,46,0.00,,CLR,0.00,0.00,VWS V14.00,2013-02-22 01:34:00,
2013-02-21 20:39:00,54.1,33.2,30.12,SSE,162,0.0,2.0,45,0.00,,CLR,0.00,0.00,VWS V14.00,2013-02-22 01:39:00,
2013-02-21 20:44:00,54.1,33.2,30.13,ESE,106,0.0,1.0,45,0.00,,CLR,0.00,0.00,VWS V14.00,2013-02-22 01:44:00,
2013-02-21 20:49:00,53.9,33.6,30.13,ESE,110,0.0,1.0,46,0.00,,CLR,0.00,0.00,VWS V14.00,2013-02-22 01:49:00,
2013-02-21 20:54:00,53.9,33.6,30.13,SE,143,0.0,2.0,46,0.00,,CLR,0.00,0.00,VWS V14.00,2013-02-22 01:54:00,
2013-02-21 20:59:00,53.8,33.5,30.14,SE,131,0.0,3.0,46,0.00,,CLR,0.00,0.00,VWS V14.00,2013-02-22 01:59:00,
2013-02-21 21:04:00,53.8,33.5,30.14,SE,131,0.0,0.0,46,0.00,,CLR,0.00,0.00,VWS V14.00,2013-02-22 02:04:00,
2013-02-21 21:09:00,53.8,33.5,30.14,ESE,119,0.0,3.0,46,0.00,,CLR,0.00,0.00,VWS V14.00,2013-02-22 02:09:00,
2013-02-21 21:14:00,53.8,33.5,30.16,SE,131,0.0,2.0,46,0.00,,CLR,0.00,0.00,VWS V14.00,2013-02-22 02:14:00,
2013-02-21 21:19:00,53.6,33.3,30.16,South,178,0.0,2.0,46,0.00,,CLR,0.00,0.00,VWS V14.00,2013-02-22 02:19:00,
2013-02-21 21:24:00,53.6,33.3,30.16,ESE,112,1.0,1.0,46,0.00,,CLR,0.00,0.00,VWS V14.00,2013-02-22 02:24:00,
2013-02-21 21:29:00,53.5,33.2,30.16,East,93,0.0,1.0,46,0.00,,CLR,0.00,0.00,VWS V14.00,2013-02-22 02:29:00,
2013-02-21 21:34:00,53.3,33.6,30.16,ESE,123,0.0,2.0,47,0.00,,CLR,0.00,0.00,VWS V14.00,2013-02-22 02:34:00,
2013-02-21 21:39:00,53.2,33.5,30.16,ESE,103,0.0,2.0,47,0.00,,CLR,0.00,0.00,VWS V14.00,2013-02-22 02:39:00,
2013-02-21 21:44:00,53.2,33.5,30.17,East,88,0.0,2.0,47,0.00,,CLR,0.00,0.00,VWS V14.00,2013-02-22 02:44:00,
2013-02-21 21:49:00,53.1,33.4,30.17,SSE,160,0.0,2.0,47,0.00,,CLR,0.00,0.00,VWS V14.00,2013-02-22 02:49:00,
2013-02-21 21:54:00,53.1,33.4,30.17,ENE,65,0.0,2.0,47,0.00,,CLR,0.00,0.00,VWS V14.00,2013-02-22 02:54:00,
2013-02-21 22:00:00,52.9,33.2,30.16,ENE,65,0.0,2.0,47,0.00,,CLR,0.00,0.00,VWS V14.00,2013-02-22 03:00:00,
2013-02-21 22:05:00,52.8,33.2,30.16,ENE,69,0.0,1.0,47,0.00,,CLR,0.00,0.00,VWS V14.00,2013-02-22 03:05:00,
2013-02-21 22:10:00,52.8,34.2,30.16,East,80,0.0,2.0,49,0.00,,CLR,0.00,0.00,VWS V14.00,2013-02-22 03:10:00,
2013-02-21 22:14:00,52.6,33.5,30.17,East,85,0.0,1.0,48,0.00,,CLR,0.00,0.00,VWS V14.00,2013-02-22 03:14:00,
2013-02-21 22:19:00,52.5,33.4,30.17,ESE,117,0.0,5.0,48,0.00,,CLR,0.00,0.00,VWS V14.00,2013-02-22 03:19:00,
2013-02-21 22:24:00,52.5,33.9,30.17,East,90,0.0,1.0,49,0.00,,CLR,0.00,0.00,VWS V14.00,2013-02-22 03:24:00,
2013-02-21 22:30:00,52.3,33.2,30.17,East,80,0.0,3.0,48,0.00,,CLR,0.00,0.00,VWS V14.00,2013-02-22 03:30:00,
2013-02-21 22:35:00,52.3,33.2,30.17,SSE,168,0.0,2.0,48,0.00,,CLR,0.00,0.00,VWS V14.00,2013-02-22 03:35:00,
2013-02-21 22:40:00,52.3,33.7,30.17,ESE,109,0.0,7.0,49,0.00,,CLR,0.00,0.00,VWS V14.00,2013-02-22 03:40:00,
2013-02-21 22:45:00,52.3,33.7,30.17,East,89,1.0,3.0,49,0.00,,CLR,0.00,0.00,VWS V14.00,2013-02-22 03:45:00,
2013-02-21 22:50:00,52.2,34.1,30.17,SSW,198,0.0,3.0,50,0.00,,CLR,0.00,0.00,VWS V14.00,2013-02-22 03:50:00,
2013-02-21 22:55:00,52.2,34.1,30.17,SE,131,0.0,1.0,50,0.00,,CLR,0.00,0.00,VWS V14.00,2013-02-22 03:55:00,
2013-02-21 23:00:00,52.2,34.1,30.18,SE,137,0.0,2.0,50,0.00,,CLR,0.00,0.00,VWS V14.00,2013-02-22 04:00:00,
2013-02-21 23:05:00,52.2,34.1,30.18,South,171,0.0,2.0,50,0.00,,CLR,0.00,0.00,VWS V14.00,2013-02-22 04:05:00,
2013-02-21 23:10:00,52.0,34.5,30.18,SE,141,1.0,3.0,51,0.00,,CLR,0.00,0.00,VWS V14.00,2013-02-22 04:10:00,
2013-02-21 23:15:00,52.0,34.5,30.18,SSW,203,2.0,2.0,51,0.00,,CLR,0.00,0.00,VWS V14.00,2013-02-22 04:15:00,
2013-02-21 23:20:00,51.9,34.8,30.18,East,85,0.0,3.0,52,0.00,,CLR,0.00,0.00,VWS V14.00,2013-02-22 04:20:00,
2013-02-21 23:25:00,51.7,34.7,30.18,East,99,0.0,3.0,52,0.00,,CLR,0.00,0.00,VWS V14.00,2013-02-22 04:25:00,
2013-02-21 23:30:00,51.7,35.1,30.18,SE,137,0.0,3.0,53,0.00,,CLR,0.00,0.00,VWS V14.00,2013-02-22 04:30:00,
2013-02-21 23:35:00,51.6,35.5,30.18,SE,127,0.0,3.0,54,0.00,,CLR,0.00,0.00,VWS V14.00,2013-02-22 04:35:00,
2013-02-21 23:40:00,51.6,35.5,30.18,ESE,113,0.0,3.0,54,0.00,,CLR,0.00,0.00,VWS V14.00,2013-02-22 04:40:00,
2013-02-21 23:45:00,51.4,35.8,30.18,East,97,0.0,1.0,55,0.00,,CLR,0.00,0.00,VWS V14.00,2013-02-22 04:45:00,
2013-02-21 23:50:00,51.4,36.2,30.18,ESE,117,0.0,1.0,56,0.00,,CLR,0.00,0.00,VWS V14.00,2013-02-22 04:50:00,
2013-02-21 23:55:00,51.3,36.2,30.18,ESE,106,0.0,3.0,56,0.00,,CLR,0.00,0.00,VWS V14.00,2013-02-22 04:55:00,